sensor_id;sensor_type;location;lat;lon;timestamp;pressure;altitude;pressure_sealevel;temperature;humidity
3096;BME280;1558;42.700;23.360;2023-05-10T00:00:45;95634.25;;;8.47;100.00
3096;BME280;1558;42.700;23.360;2023-05-10T00:03:13;95613.84;;;8.46;100.00
3096;BME280;1558;42.700;23.360;2023-05-10T00:05:41;95615.56;;;8.42;100.00
3096;BME280;1558;42.700;23.360;2023-05-10T00:08:09;95622.34;;;8.40;100.00
3096;BME280;1558;42.700;23.360;2023-05-10T00:10:37;95619.63;;;8.31;100.00
3096;BME280;1558;42.700;23.360;2023-05-10T00:13:06;95615.19;;;8.27;100.00
3096;BME280;1558;42.700;23.360;2023-05-10T00:15:36;95610.06;;;8.25;100.00
3096;BME280;1558;42.700;23.360;2023-05-10T00:18:04;95610.72;;;8.22;100.00
3096;BME280;1558;42.700;23.360;2023-05-10T00:20:34;95608.63;;;8.19;100.00
3096;BME280;1558;42.700;23.360;2023-05-10T00:23:02;95603.25;;;8.19;100.00
3096;BME280;1558;42.700;23.360;2023-05-10T00:25:30;95604.84;;;8.20;100.00
3096;BME280;1558;42.700;23.360;2023-05-10T00:27:58;95598.97;;;8.18;100.00
3096;BME280;1558;42.700;23.360;2023-05-10T00:30:28;95593.59;;;8.18;100.00
3096;BME280;1558;42.700;23.360;2023-05-10T00:32:59;95595.50;;;8.17;100.00
3096;BME280;1558;42.700;23.360;2023-05-10T00:35:27;95611.44;;;8.14;100.00
3096;BME280;1558;42.700;23.360;2023-05-10T00:37:55;95613.31;;;8.13;100.00
3096;BME280;1558;42.700;23.360;2023-05-10T00:40:23;95604.97;;;8.15;100.00
3096;BME280;1558;42.700;23.360;2023-05-10T00:42:51;95600.22;;;8.12;100.00
3096;BME280;1558;42.700;23.360;2023-05-10T00:45:19;95597.34;;;8.08;100.00
3096;BME280;1558;42.700;23.360;2023-05-10T00:47:47;95583.13;;;8.08;100.00
3096;BME280;1558;42.700;23.360;2023-05-10T00:50:17;95588.63;;;8.03;100.00
3096;BME280;1558;42.700;23.360;2023-05-10T00:52:45;95585.94;;;8.03;100.00
3096;BME280;1558;42.700;23.360;2023-05-10T00:55:13;95599.38;;;8.03;100.00
3096;BME280;1558;42.700;23.360;2023-05-10T00:57:41;95588.63;;;8.03;100.00
3096;BME280;1558;42.700;23.360;2023-05-10T01:00:11;95584.84;;;8.04;100.00
3096;BME280;1558;42.700;23.360;2023-05-10T01:02:44;95581.50;;;7.98;100.00
3096;BME280;1558;42.700;23.360;2023-05-10T01:05:13;95588.91;;;8.01;100.00
3096;BME280;1558;42.700;23.360;2023-05-10T01:07:43;95592.25;;;7.98;100.00
3096;BME280;1558;42.700;23.360;2023-05-10T01:10:11;95582.59;;;7.97;100.00
3096;BME280;1558;42.700;23.360;2023-05-10T01:12:40;95572.31;;;7.99;100.00
3096;BME280;1558;42.700;23.360;2023-05-10T01:15:11;95591.44;;;7.98;100.00
3096;BME280;1558;42.700;23.360;2023-05-10T01:17:41;95580.69;;;7.98;100.00
3096;BME280;1558;42.700;23.360;2023-05-10T01:20:11;95580.69;;;7.98;100.00
3096;BME280;1558;42.700;23.360;2023-05-10T01:22:55;95587.78;;;7.94;100.00
3096;BME280;1558;42.700;23.360;2023-05-10T01:28:39;95576.66;;;7.87;100.00
3096;BME280;1558;42.700;23.360;2023-05-10T01:31:27;95571.94;;;7.84;100.00
3096;BME280;1558;42.700;23.360;2023-05-10T01:34:02;95575.72;;;7.83;100.00
3096;BME280;1558;42.700;23.360;2023-05-10T01:36:40;95577.09;;;7.80;100.00
3096;BME280;1558;42.700;23.360;2023-05-10T01:39:15;95572.19;;;7.74;100.00
3096;BME280;1558;42.700;23.360;2023-05-10T01:41:49;95572.66;;;7.76;100.00
3096;BME280;1558;42.700;23.360;2023-05-10T01:44:24;95565.22;;;7.73;100.00
3096;BME280;1558;42.700;23.360;2023-05-10T01:47:00;95569.63;;;7.69;100.00
3096;BME280;1558;42.700;23.360;2023-05-10T01:49:34;95561.09;;;7.67;100.00
3096;BME280;1558;42.700;23.360;2023-05-10T01:52:08;95556.50;;;7.67;100.00
3096;BME280;1558;42.700;23.360;2023-05-10T01:54:38;95563.09;;;7.61;100.00
3096;BME280;1558;42.700;23.360;2023-05-10T01:57:10;95556.44;;;7.59;100.00
3096;BME280;1558;42.700;23.360;2023-05-10T01:59:40;95554.75;;;7.63;100.00
3096;BME280;1558;42.700;23.360;2023-05-10T02:02:11;95556.94;;;7.61;100.00
3096;BME280;1558;42.700;23.360;2023-05-10T02:04:43;95561.53;;;7.60;100.00
3096;BME280;1558;42.700;23.360;2023-05-10T02:07:13;95565.13;;;7.56;100.00
3096;BME280;1558;42.700;23.360;2023-05-10T02:09:44;95562.72;;;7.54;100.00
3096;BME280;1558;42.700;23.360;2023-05-10T02:12:15;95560.66;;;7.51;100.00
3096;BME280;1558;42.700;23.360;2023-05-10T02:14:44;95574.50;;;7.44;100.00
3096;BME280;1558;42.700;23.360;2023-05-10T02:17:13;95572.56;;;7.36;100.00
3096;BME280;1558;42.700;23.360;2023-05-10T02:19:44;95568.59;;;7.34;100.00
3096;BME280;1558;42.700;23.360;2023-05-10T02:22:15;95572.66;;;7.31;100.00
3096;BME280;1558;42.700;23.360;2023-05-10T02:24:45;95570.09;;;7.26;100.00
3096;BME280;1558;42.700;23.360;2023-05-10T02:27:14;95569.72;;;7.19;100.00
3096;BME280;1558;42.700;23.360;2023-05-10T02:29:44;95593.88;;;7.19;100.00
3096;BME280;1558;42.700;23.360;2023-05-10T02:32:13;95586.25;;;7.13;100.00
3096;BME280;1558;42.700;23.360;2023-05-10T02:34:44;95584.31;;;6.91;100.00
3096;BME280;1558;42.700;23.360;2023-05-10T02:37:20;95578.84;;;6.69;100.00
3096;BME280;1558;42.700;23.360;2023-05-10T02:39:50;95574.72;;;6.63;100.00
3096;BME280;1558;42.700;23.360;2023-05-10T02:42:24;95573.41;;;6.47;100.00
3096;BME280;1558;42.700;23.360;2023-05-10T02:44:54;95572.25;;;6.39;100.00
3096;BME280;1558;42.700;23.360;2023-05-10T02:47:24;95572.94;;;6.18;100.00
3096;BME280;1558;42.700;23.360;2023-05-10T02:49:53;95574.31;;;6.15;100.00
3096;BME280;1558;42.700;23.360;2023-05-10T02:52:24;95578.56;;;6.16;100.00
3096;BME280;1558;42.700;23.360;2023-05-10T02:54:55;95572.94;;;6.18;100.00
3096;BME280;1558;42.700;23.360;2023-05-10T02:57:27;95568.16;;;6.14;100.00
3096;BME280;1558;42.700;23.360;2023-05-10T02:59:56;95560.91;;;6.15;100.00
3096;BME280;1558;42.700;23.360;2023-05-10T03:02:25;95571.91;;;6.13;100.00
3096;BME280;1558;42.700;23.360;2023-05-10T03:04:54;95565.38;;;6.20;100.00
3096;BME280;1558;42.700;23.360;2023-05-10T03:07:23;95581.44;;;6.20;100.00
3096;BME280;1558;42.700;23.360;2023-05-10T03:09:52;95577.88;;;6.24;100.00
3096;BME280;1558;42.700;23.360;2023-05-10T03:12:31;95580.88;;;6.23;100.00
3096;BME280;1558;42.700;23.360;2023-05-10T03:15:04;95579.84;;;6.19;100.00
3096;BME280;1558;42.700;23.360;2023-05-10T03:17:41;95582.53;;;6.05;100.00
3096;BME280;1558;42.700;23.360;2023-05-10T03:20:16;95573.28;;;5.97;100.00
3096;BME280;1558;42.700;23.360;2023-05-10T03:22:52;95584.00;;;5.97;100.00
3096;BME280;1558;42.700;23.360;2023-05-10T03:25:21;95584.56;;;5.94;100.00
3096;BME280;1558;42.700;23.360;2023-05-10T03:27:52;95584.88;;;5.93;100.00
3096;BME280;1558;42.700;23.360;2023-05-10T03:30:22;95589.94;;;5.94;100.00
3096;BME280;1558;42.700;23.360;2023-05-10T03:32:50;95588.06;;;5.95;100.00
3096;BME280;1558;42.700;23.360;2023-05-10T03:35:20;95588.84;;;5.95;100.00
3096;BME280;1558;42.700;23.360;2023-05-10T03:37:48;95591.44;;;6.00;100.00
3096;BME280;1558;42.700;23.360;2023-05-10T03:40:16;95592.16;;;6.06;100.00
3096;BME280;1558;42.700;23.360;2023-05-10T03:42:45;95599.66;;;6.04;100.00
3096;BME280;1558;42.700;23.360;2023-05-10T03:45:13;95596.72;;;6.05;100.00
3096;BME280;1558;42.700;23.360;2023-05-10T03:47:41;95586.19;;;6.09;100.00
3096;BME280;1558;42.700;23.360;2023-05-10T03:50:09;95593.94;;;6.10;100.00
3096;BME280;1558;42.700;23.360;2023-05-10T03:52:39;95593.94;;;6.10;100.00
3096;BME280;1558;42.700;23.360;2023-05-10T03:55:07;95593.34;;;6.13;100.00
3096;BME280;1558;42.700;23.360;2023-05-10T03:57:36;95607.81;;;6.12;100.00
3096;BME280;1558;42.700;23.360;2023-05-10T04:00:04;95612.59;;;6.16;100.00
3096;BME280;1558;42.700;23.360;2023-05-10T04:02:33;95598.81;;;6.08;100.00
3096;BME280;1558;42.700;23.360;2023-05-10T04:05:01;95604.25;;;6.03;100.00
3096;BME280;1558;42.700;23.360;2023-05-10T04:07:29;95610.97;;;6.01;100.00
3096;BME280;1558;42.700;23.360;2023-05-10T04:09:58;95599.56;;;5.95;100.00
3096;BME280;1558;42.700;23.360;2023-05-10T04:12:26;95612.44;;;5.93;100.00
3096;BME280;1558;42.700;23.360;2023-05-10T04:14:54;95612.63;;;5.97;100.00
3096;BME280;1558;42.700;23.360;2023-05-10T04:17:22;95611.16;;;5.91;100.00
3096;BME280;1558;42.700;23.360;2023-05-10T04:19:50;95622.94;;;5.90;100.00
3096;BME280;1558;42.700;23.360;2023-05-10T04:22:21;95612.53;;;5.88;100.00
3096;BME280;1558;42.700;23.360;2023-05-10T04:24:49;95613.91;;;5.86;100.00
3096;BME280;1558;42.700;23.360;2023-05-10T04:27:18;95610.34;;;5.90;100.00
3096;BME280;1558;42.700;23.360;2023-05-10T04:29:46;95625.91;;;5.88;100.00
3096;BME280;1558;42.700;23.360;2023-05-10T04:32:14;95617.88;;;5.88;100.00
3096;BME280;1558;42.700;23.360;2023-05-10T04:34:44;95622.25;;;5.84;100.00
3096;BME280;1558;42.700;23.360;2023-05-10T04:37:11;95613.91;;;5.86;100.00
3096;BME280;1558;42.700;23.360;2023-05-10T04:39:40;95610.94;;;5.87;100.00
3096;BME280;1558;42.700;23.360;2023-05-10T04:42:09;95619.47;;;5.89;100.00
3096;BME280;1558;42.700;23.360;2023-05-10T04:44:39;95612.03;;;5.86;100.00
3096;BME280;1558;42.700;23.360;2023-05-10T04:47:07;95618.88;;;5.92;100.00
3096;BME280;1558;42.700;23.360;2023-05-10T04:49:38;95607.91;;;5.94;100.00
3096;BME280;1558;42.700;23.360;2023-05-10T04:52:06;95615.31;;;5.97;100.00
3096;BME280;1558;42.700;23.360;2023-05-10T04:54:34;95612.28;;;6.03;100.00
3096;BME280;1558;42.700;23.360;2023-05-10T04:57:02;95603.94;;;6.05;100.00
3096;BME280;1558;42.700;23.360;2023-05-10T04:59:30;95616.44;;;6.09;100.00
3096;BME280;1558;42.700;23.360;2023-05-10T05:02:00;95609.59;;;6.03;100.00
3096;BME280;1558;42.700;23.360;2023-05-10T05:04:29;95610.78;;;6.11;100.00
3096;BME280;1558;42.700;23.360;2023-05-10T05:06:57;95612.59;;;6.16;100.00
3096;BME280;1558;42.700;23.360;2023-05-10T05:09:25;95617.72;;;6.12;100.00
3096;BME280;1558;42.700;23.360;2023-05-10T05:11:53;95620.50;;;6.21;100.00
3096;BME280;1558;42.700;23.360;2023-05-10T05:14:21;95622.69;;;6.19;100.00
3096;BME280;1558;42.700;23.360;2023-05-10T05:16:51;95614.88;;;6.22;100.00
3096;BME280;1558;42.700;23.360;2023-05-10T05:19:21;95620.34;;;6.31;100.00
3096;BME280;1558;42.700;23.360;2023-05-10T05:21:49;95627.28;;;6.32;100.00
3096;BME280;1558;42.700;23.360;2023-05-10T05:24:17;95621.22;;;6.26;100.00
3096;BME280;1558;42.700;23.360;2023-05-10T05:26:45;95626.69;;;6.35;100.00
3096;BME280;1558;42.700;23.360;2023-05-10T05:29:13;95648.72;;;6.32;100.00
3096;BME280;1558;42.700;23.360;2023-05-10T05:31:41;95633.06;;;6.39;100.00
3096;BME280;1558;42.700;23.360;2023-05-10T05:34:09;95628.19;;;6.41;100.00
3096;BME280;1558;42.700;23.360;2023-05-10T05:36:39;95632.66;;;6.32;100.00
3096;BME280;1558;42.700;23.360;2023-05-10T05:39:07;95648.09;;;6.35;100.00
3096;BME280;1558;42.700;23.360;2023-05-10T05:41:35;95630.47;;;6.34;100.00
3096;BME280;1558;42.700;23.360;2023-05-10T05:44:03;95633.44;;;6.32;100.00
3096;BME280;1558;42.700;23.360;2023-05-10T05:46:31;95637.41;;;6.35;100.00
3096;BME280;1558;42.700;23.360;2023-05-10T05:48:59;95644.56;;;6.39;100.00
3096;BME280;1558;42.700;23.360;2023-05-10T05:51:28;95638.41;;;6.39;100.00
3096;BME280;1558;42.700;23.360;2023-05-10T05:53:57;95643.06;;;6.47;100.00
3096;BME280;1558;42.700;23.360;2023-05-10T05:56:25;95641.00;;;6.44;100.00
3096;BME280;1558;42.700;23.360;2023-05-10T05:58:53;95652.69;;;6.48;100.00
3096;BME280;1558;42.700;23.360;2023-05-10T06:01:21;95648.53;;;6.42;100.00
3096;BME280;1558;42.700;23.360;2023-05-10T06:03:49;95654.09;;;6.45;100.00
3096;BME280;1558;42.700;23.360;2023-05-10T06:06:19;95642.00;;;6.48;100.00
3096;BME280;1558;42.700;23.360;2023-05-10T06:08:47;95653.31;;;6.58;100.00
3096;BME280;1558;42.700;23.360;2023-05-10T06:11:16;95649.34;;;6.56;100.00
3096;BME280;1558;42.700;23.360;2023-05-10T06:13:44;95650.63;;;6.58;100.00
3096;BME280;1558;42.700;23.360;2023-05-10T06:16:13;95657.47;;;6.51;100.00
3096;BME280;1558;42.700;23.360;2023-05-10T06:18:41;95643.59;;;6.62;100.00
3096;BME280;1558;42.700;23.360;2023-05-10T06:21:09;95647.25;;;6.53;100.00
3096;BME280;1558;42.700;23.360;2023-05-10T06:23:37;95649.22;;;6.61;100.00
3096;BME280;1558;42.700;23.360;2023-05-10T06:26:05;95660.47;;;6.63;100.00
3096;BME280;1558;42.700;23.360;2023-05-10T06:28:35;95656.59;;;6.69;100.00
3096;BME280;1558;42.700;23.360;2023-05-10T06:31:05;95660.44;;;6.90;100.00
3096;BME280;1558;42.700;23.360;2023-05-10T06:33:33;95673.75;;;6.95;100.00
3096;BME280;1558;42.700;23.360;2023-05-10T06:36:02;95666.97;;;7.11;100.00
3096;BME280;1558;42.700;23.360;2023-05-10T06:38:30;95662.50;;;7.20;100.00
3096;BME280;1558;42.700;23.360;2023-05-10T06:40:59;95652.03;;;7.32;100.00
3096;BME280;1558;42.700;23.360;2023-05-10T06:43:27;95652.41;;;7.39;100.00
3096;BME280;1558;42.700;23.360;2023-05-10T06:45:57;95645.00;;;7.36;100.00
3096;BME280;1558;42.700;23.360;2023-05-10T06:48:25;95643.50;;;7.44;100.00
3096;BME280;1558;42.700;23.360;2023-05-10T06:50:53;95640.94;;;7.61;100.00
3096;BME280;1558;42.700;23.360;2023-05-10T06:53:21;95653.81;;;7.73;100.00
3096;BME280;1558;42.700;23.360;2023-05-10T06:55:50;95589.97;;;7.25;100.00
3096;BME280;1558;42.700;23.360;2023-05-10T06:58:18;95663.09;;;7.89;100.00
3096;BME280;1558;42.700;23.360;2023-05-10T07:00:46;95654.50;;;7.78;100.00
3096;BME280;1558;42.700;23.360;2023-05-10T07:03:15;95656.75;;;7.85;100.00
3096;BME280;1558;42.700;23.360;2023-05-10T07:05:43;95666.34;;;7.99;100.00
3096;BME280;1558;42.700;23.360;2023-05-10T07:08:12;95659.56;;;8.02;100.00
3096;BME280;1558;42.700;23.360;2023-05-10T07:10:41;95673.72;;;8.16;100.00
3096;BME280;1558;42.700;23.360;2023-05-10T07:13:09;95673.78;;;8.25;100.00
3096;BME280;1558;42.700;23.360;2023-05-10T07:15:37;95664.09;;;8.15;100.00
3096;BME280;1558;42.700;23.360;2023-05-10T07:18:05;95662.75;;;8.26;100.00
3096;BME280;1558;42.700;23.360;2023-05-10T07:20:35;95665.00;;;8.33;100.00
3096;BME280;1558;42.700;23.360;2023-05-10T07:23:03;95675.28;;;8.39;100.00
3096;BME280;1558;42.700;23.360;2023-05-10T07:25:31;95644.97;;;8.39;100.00
3096;BME280;1558;42.700;23.360;2023-05-10T07:27:59;95555.19;;;7.87;100.00
3096;BME280;1558;42.700;23.360;2023-05-10T07:30:27;95643.78;;;8.53;100.00
3096;BME280;1558;42.700;23.360;2023-05-10T07:32:56;95665.66;;;8.69;100.00
3096;BME280;1558;42.700;23.360;2023-05-10T07:35:25;95669.16;;;8.69;100.00
3096;BME280;1558;42.700;23.360;2023-05-10T07:37:55;95679.22;;;8.64;100.00
3096;BME280;1558;42.700;23.360;2023-05-10T07:40:23;95663.91;;;8.64;100.00
3096;BME280;1558;42.700;23.360;2023-05-10T07:42:51;95668.34;;;8.69;100.00
3096;BME280;1558;42.700;23.360;2023-05-10T07:45:19;95586.47;;;8.13;100.00
3096;BME280;1558;42.700;23.360;2023-05-10T07:47:47;95665.34;;;8.70;100.00
3096;BME280;1558;42.700;23.360;2023-05-10T07:50:15;95653.22;;;8.81;100.00
3096;BME280;1558;42.700;23.360;2023-05-10T07:52:44;95665.94;;;8.98;100.00
3096;BME280;1558;42.700;23.360;2023-05-10T07:55:13;95648.59;;;8.82;100.00
3096;BME280;1558;42.700;23.360;2023-05-10T07:57:42;95670.19;;;8.99;100.00
3096;BME280;1558;42.700;23.360;2023-05-10T08:00:13;95674.63;;;9.04;100.00
3096;BME280;1558;42.700;23.360;2023-05-10T08:02:44;95654.22;;;9.03;100.00
3096;BME280;1558;42.700;23.360;2023-05-10T08:05:13;95680.34;;;9.02;100.00
3096;BME280;1558;42.700;23.360;2023-05-10T08:07:41;95676.44;;;9.17;100.00
3096;BME280;1558;42.700;23.360;2023-05-10T08:10:12;95677.25;;;9.26;100.00
3096;BME280;1558;42.700;23.360;2023-05-10T08:12:40;95677.25;;;9.26;100.00
3096;BME280;1558;42.700;23.360;2023-05-10T08:15:09;95639.38;;;9.05;100.00
3096;BME280;1558;42.700;23.360;2023-05-10T08:17:37;95659.66;;;9.20;100.00
3096;BME280;1558;42.700;23.360;2023-05-10T08:20:06;95679.59;;;9.27;100.00
3096;BME280;1558;42.700;23.360;2023-05-10T08:22:35;95678.66;;;9.23;100.00
3096;BME280;1558;42.700;23.360;2023-05-10T08:25:03;95670.13;;;9.30;100.00
3096;BME280;1558;42.700;23.360;2023-05-10T08:27:33;95677.56;;;9.33;100.00
3096;BME280;1558;42.700;23.360;2023-05-10T08:30:01;95651.59;;;9.20;100.00
3096;BME280;1558;42.700;23.360;2023-05-10T08:32:29;95683.44;;;9.35;100.00
3096;BME280;1558;42.700;23.360;2023-05-10T08:34:57;95671.41;;;9.41;100.00
3096;BME280;1558;42.700;23.360;2023-05-10T08:37:25;95551.31;;;8.71;100.00
3096;BME280;1558;42.700;23.360;2023-05-10T08:39:53;95678.22;;;9.47;100.00
3096;BME280;1558;42.700;23.360;2023-05-10T08:42:23;95672.84;;;9.47;100.00
3096;BME280;1558;42.700;23.360;2023-05-10T08:44:56;95681.41;;;9.58;100.00
3096;BME280;1558;42.700;23.360;2023-05-10T08:47:26;95672.38;;;9.53;100.00
3096;BME280;1558;42.700;23.360;2023-05-10T08:49:55;95685.69;;;9.59;100.00
3096;BME280;1558;42.700;23.360;2023-05-10T08:52:26;95701.38;;;9.65;100.00
3096;BME280;1558;42.700;23.360;2023-05-10T08:54:54;95683.50;;;9.69;100.00
3096;BME280;1558;42.700;23.360;2023-05-10T08:57:23;95667.16;;;9.66;100.00
3096;BME280;1558;42.700;23.360;2023-05-10T08:59:51;95650.34;;;9.77;100.00
3096;BME280;1558;42.700;23.360;2023-05-10T09:02:21;95631.53;;;9.60;100.00
3096;BME280;1558;42.700;23.360;2023-05-10T09:04:51;95701.72;;;9.89;100.00
3096;BME280;1558;42.700;23.360;2023-05-10T09:07:19;95660.81;;;9.87;100.00
3096;BME280;1558;42.700;23.360;2023-05-10T09:09:48;95676.50;;;9.85;100.00
3096;BME280;1558;42.700;23.360;2023-05-10T09:12:16;95671.44;;;9.67;100.00
3096;BME280;1558;42.700;23.360;2023-05-10T09:14:45;95658.59;;;9.55;100.00
3096;BME280;1558;42.700;23.360;2023-05-10T09:17:14;95678.25;;;9.64;100.00
3096;BME280;1558;42.700;23.360;2023-05-10T09:19:44;95657.50;;;9.47;100.00
3096;BME280;1558;42.700;23.360;2023-05-10T09:22:13;95668.28;;;9.65;100.00
3096;BME280;1558;42.700;23.360;2023-05-10T09:24:43;95670.50;;;9.71;100.00
3096;BME280;1558;42.700;23.360;2023-05-10T09:27:12;95669.41;;;9.72;100.00
3096;BME280;1558;42.700;23.360;2023-05-10T09:29:41;95668.75;;;9.75;100.00
3096;BME280;1558;42.700;23.360;2023-05-10T09:32:09;95669.06;;;9.65;100.00
3096;BME280;1558;42.700;23.360;2023-05-10T09:34:39;95667.31;;;9.69;100.00
3096;BME280;1558;42.700;23.360;2023-05-10T09:37:09;95654.97;;;9.68;100.00
3096;BME280;1558;42.700;23.360;2023-05-10T09:39:37;95643.56;;;9.71;100.00
3096;BME280;1558;42.700;23.360;2023-05-10T09:42:07;95677.31;;;9.94;100.00
3096;BME280;1558;42.700;23.360;2023-05-10T09:44:35;95657.66;;;10.02;100.00
3096;BME280;1558;42.700;23.360;2023-05-10T09:47:04;95650.34;;;9.94;100.00
3096;BME280;1558;42.700;23.360;2023-05-10T09:49:33;95648.75;;;10.10;100.00
3096;BME280;1558;42.700;23.360;2023-05-10T09:52:02;95662.44;;;10.14;100.00
3096;BME280;1558;42.700;23.360;2023-05-10T09:54:32;95671.91;;;10.20;100.00
3096;BME280;1558;42.700;23.360;2023-05-10T09:57:01;95660.94;;;10.42;100.00
3096;BME280;1558;42.700;23.360;2023-05-10T09:59:29;95652.22;;;10.45;100.00
3096;BME280;1558;42.700;23.360;2023-05-10T10:02:00;95611.00;;;10.28;100.00
3096;BME280;1558;42.700;23.360;2023-05-10T10:04:28;95643.63;;;10.52;100.00
3096;BME280;1558;42.700;23.360;2023-05-10T10:07:00;95651.69;;;10.60;100.00
3096;BME280;1558;42.700;23.360;2023-05-10T10:09:29;95649.59;;;10.66;100.00
3096;BME280;1558;42.700;23.360;2023-05-10T10:11:59;95646.50;;;10.47;100.00
3096;BME280;1558;42.700;23.360;2023-05-10T10:14:27;95577.91;;;10.10;100.00
3096;BME280;1558;42.700;23.360;2023-05-10T10:16:56;95611.19;;;10.69;100.00
3096;BME280;1558;42.700;23.360;2023-05-10T10:19:34;95590.69;;;10.76;100.00
3096;BME280;1558;42.700;23.360;2023-05-10T10:22:03;95633.09;;;11.05;100.00
3096;BME280;1558;42.700;23.360;2023-05-10T10:24:32;95625.66;;;11.02;100.00
3096;BME280;1558;42.700;23.360;2023-05-10T10:30:00;95633.22;;;11.09;100.00
3096;BME280;1558;42.700;23.360;2023-05-10T10:32:38;95641.41;;;10.92;100.00
3096;BME280;1558;42.700;23.360;2023-05-10T10:35:10;95634.56;;;10.94;100.00
3096;BME280;1558;42.700;23.360;2023-05-10T10:37:43;95625.66;;;11.02;100.00
3096;BME280;1558;42.700;23.360;2023-05-10T10:40:26;95641.47;;;10.74;100.00
3096;BME280;1558;42.700;23.360;2023-05-10T10:42:57;95636.69;;;10.80;100.00
3096;BME280;1558;42.700;23.360;2023-05-10T10:45:26;95618.59;;;10.80;100.00
3096;BME280;1558;42.700;23.360;2023-05-10T10:50:58;95608.59;;;10.81;100.00
3096;BME280;1558;42.700;23.360;2023-05-10T10:53:26;95635.88;;;10.88;100.00
3096;BME280;1558;42.700;23.360;2023-05-10T10:56:09;95632.75;;;11.07;100.00
3096;BME280;1558;42.700;23.360;2023-05-10T10:58:39;95629.44;;;11.01;100.00
3096;BME280;1558;42.700;23.360;2023-05-10T11:01:12;95623.88;;;11.06;100.00
3096;BME280;1558;42.700;23.360;2023-05-10T11:03:56;95648.16;;;11.06;100.00
3096;BME280;1558;42.700;23.360;2023-05-10T11:06:42;95630.72;;;11.04;100.00
3096;BME280;1558;42.700;23.360;2023-05-10T11:09:11;95636.38;;;11.11;100.00
3096;BME280;1558;42.700;23.360;2023-05-10T11:11:50;95628.47;;;11.06;100.00
3096;BME280;1558;42.700;23.360;2023-05-10T11:14:21;95614.47;;;10.83;100.00
3096;BME280;1558;42.700;23.360;2023-05-10T11:16:50;95629.59;;;11.05;100.00
3096;BME280;1558;42.700;23.360;2023-05-10T11:19:19;95613.97;;;11.19;100.00
3096;BME280;1558;42.700;23.360;2023-05-10T11:21:48;95603.53;;;11.09;100.00
3096;BME280;1558;42.700;23.360;2023-05-10T11:24:17;95624.78;;;11.39;100.00
3096;BME280;1558;42.700;23.360;2023-05-10T11:26:45;95627.03;;;11.37;100.00
3096;BME280;1558;42.700;23.360;2023-05-10T11:29:15;95631.44;;;11.42;100.00
3096;BME280;1558;42.700;23.360;2023-05-10T11:31:45;95627.28;;;11.44;100.00
3096;BME280;1558;42.700;23.360;2023-05-10T11:34:23;95633.03;;;11.43;100.00
3096;BME280;1558;42.700;23.360;2023-05-10T11:36:52;95631.38;;;11.50;100.00
3096;BME280;1558;42.700;23.360;2023-05-10T11:39:25;95636.91;;;11.33;100.00
3096;BME280;1558;42.700;23.360;2023-05-10T11:41:53;95638.19;;;11.27;100.00
3096;BME280;1558;42.700;23.360;2023-05-10T11:44:22;95637.00;;;11.16;100.00
3096;BME280;1558;42.700;23.360;2023-05-10T11:46:51;95636.34;;;11.19;100.00
3096;BME280;1558;42.700;23.360;2023-05-10T11:49:20;95649.38;;;11.17;100.00
3096;BME280;1558;42.700;23.360;2023-05-10T11:51:50;95636.25;;;11.07;100.00
3096;BME280;1558;42.700;23.360;2023-05-10T11:54:18;95646.72;;;11.09;100.00
3096;BME280;1558;42.700;23.360;2023-05-10T11:56:46;95626.09;;;11.04;100.00
3096;BME280;1558;42.700;23.360;2023-05-10T11:59:14;95620.81;;;11.16;100.00
3096;BME280;1558;42.700;23.360;2023-05-10T12:01:42;95621.06;;;11.23;100.00
3096;BME280;1558;42.700;23.360;2023-05-10T12:04:12;95628.19;;;11.28;100.00
3096;BME280;1558;42.700;23.360;2023-05-10T12:06:40;95624.66;;;11.36;100.00
3096;BME280;1558;42.700;23.360;2023-05-10T12:09:10;95633.78;;;11.43;100.00
3096;BME280;1558;42.700;23.360;2023-05-10T12:11:39;95613.16;;;11.18;100.00
3096;BME280;1558;42.700;23.360;2023-05-10T12:14:10;95626.75;;;11.30;100.00
3096;BME280;1558;42.700;23.360;2023-05-10T12:16:38;95614.56;;;11.24;100.00
3096;BME280;1558;42.700;23.360;2023-05-10T12:19:07;95611.19;;;11.27;100.00
3096;BME280;1558;42.700;23.360;2023-05-10T12:21:37;95606.75;;;11.31;100.00
3096;BME280;1558;42.700;23.360;2023-05-10T12:24:05;95607.06;;;11.30;100.00
3096;BME280;1558;42.700;23.360;2023-05-10T12:26:35;95600.66;;;11.34;100.00
3096;BME280;1558;42.700;23.360;2023-05-10T12:29:18;95598.31;;;11.33;100.00
3096;BME280;1558;42.700;23.360;2023-05-10T12:31:51;95609.44;;;11.31;100.00
3096;BME280;1558;42.700;23.360;2023-05-10T12:34:24;95570.69;;;11.07;100.00
3096;BME280;1558;42.700;23.360;2023-05-10T12:36:53;95605.78;;;11.27;100.00
3096;BME280;1558;42.700;23.360;2023-05-10T12:39:23;95570.38;;;10.79;100.00
3096;BME280;1558;42.700;23.360;2023-05-10T12:41:51;95600.50;;;11.10;100.00
3096;BME280;1558;42.700;23.360;2023-05-10T12:44:19;95621.81;;;11.03;100.00
3096;BME280;1558;42.700;23.360;2023-05-10T12:46:48;95589.38;;;11.12;100.00
3096;BME280;1558;42.700;23.360;2023-05-10T12:49:16;95599.19;;;11.16;100.00
3096;BME280;1558;42.700;23.360;2023-05-10T12:51:45;95602.88;;;11.12;100.00
3096;BME280;1558;42.700;23.360;2023-05-10T12:54:15;95579.47;;;11.24;100.00
3096;BME280;1558;42.700;23.360;2023-05-10T12:56:43;95585.13;;;11.31;100.00
3096;BME280;1558;42.700;23.360;2023-05-10T12:59:11;95584.78;;;11.12;100.00
3096;BME280;1558;42.700;23.360;2023-05-10T13:01:39;95577.41;;;11.21;100.00
3096;BME280;1558;42.700;23.360;2023-05-10T13:04:07;95584.25;;;11.39;100.00
3096;BME280;1558;42.700;23.360;2023-05-10T13:06:35;95574.88;;;11.45;100.00
3096;BME280;1558;42.700;23.360;2023-05-10T13:09:03;95588.56;;;11.40;100.00
3096;BME280;1558;42.700;23.360;2023-05-10T13:11:33;95586.91;;;11.48;100.00
3096;BME280;1558;42.700;23.360;2023-05-10T13:14:03;95544.81;;;11.26;100.00
3096;BME280;1558;42.700;23.360;2023-05-10T13:16:31;95510.03;;;11.04;100.00
3096;BME280;1558;42.700;23.360;2023-05-10T13:18:59;95564.44;;;11.56;100.00
3096;BME280;1558;42.700;23.360;2023-05-10T13:21:28;95572.63;;;11.68;100.00
3096;BME280;1558;42.700;23.360;2023-05-10T13:23:57;95567.81;;;11.74;100.00
3096;BME280;1558;42.700;23.360;2023-05-10T13:26:26;95554.44;;;11.56;100.00
3096;BME280;1558;42.700;23.360;2023-05-10T13:28:56;95570.75;;;11.60;100.00